createdAt,value
2018-07-03T00:01:06.635Z,4.27
2018-07-03T00:03:35.417Z,5.18
2018-07-03T00:06:05.089Z,4.63
2018-07-03T00:08:33.753Z,5.07
2018-07-03T00:11:02.416Z,2.83
2018-07-03T00:13:31.122Z,3.07
2018-07-03T00:15:59.821Z,1.40
2018-07-03T00:18:28.513Z,2.30
2018-07-03T00:20:57.195Z,2.07
2018-07-03T00:23:25.856Z,1.30
2018-07-03T00:25:55.097Z,0.93
2018-07-03T00:28:23.763Z,0.80
2018-07-03T00:30:52.486Z,0.90
2018-07-03T00:33:21.542Z,0.60
2018-07-03T00:35:50.494Z,1.10
2018-07-03T00:38:19.168Z,0.80
2018-07-03T00:40:47.839Z,1.20
2018-07-03T00:43:16.495Z,0.90
2018-07-03T00:45:45.153Z,0.70
2018-07-03T00:48:13.864Z,0.67
2018-07-03T00:50:42.487Z,0.90
2018-07-03T00:53:11.190Z,0.70
2018-07-03T00:55:39.831Z,0.77
2018-07-03T00:58:08.528Z,0.80
2018-07-03T01:00:37.180Z,1.00
2018-07-03T01:03:05.872Z,0.73
2018-07-03T01:05:34.693Z,0.70
2018-07-03T01:08:03.452Z,0.57
2018-07-03T01:10:32.090Z,0.60
2018-07-03T01:13:00.760Z,0.70
2018-07-03T01:15:29.398Z,0.70
2018-07-03T01:17:58.094Z,0.70
2018-07-03T01:20:26.774Z,0.70
2018-07-03T01:22:55.438Z,0.47
2018-07-03T01:25:24.096Z,0.60
2018-07-03T01:27:52.768Z,0.60
2018-07-03T01:30:21.447Z,0.80
2018-07-03T01:32:50.395Z,0.60
2018-07-03T01:35:19.388Z,0.63
2018-07-03T01:37:48.293Z,0.80
2018-07-03T01:40:16.914Z,0.60
2018-07-03T01:42:45.565Z,0.70
2018-07-03T01:45:14.253Z,0.63
2018-07-03T01:47:42.928Z,0.50
2018-07-03T01:50:11.667Z,0.80
2018-07-03T01:52:40.252Z,0.70
2018-07-03T01:55:08.912Z,0.60
2018-07-03T01:57:37.568Z,0.70
2018-07-03T02:00:06.441Z,1.07
2018-07-03T02:02:35.365Z,0.82
2018-07-03T02:05:04.357Z,0.60
2018-07-03T02:07:33.277Z,0.80
2018-07-03T02:10:02.352Z,0.70
2018-07-03T02:12:31.278Z,0.80
2018-07-03T02:15:00.137Z,0.80
2018-07-03T02:17:29.147Z,0.83
2018-07-03T02:19:58.180Z,0.80
2018-07-03T02:22:27.304Z,0.90
2018-07-03T02:24:56.649Z,0.90
2018-07-03T02:27:25.144Z,0.87
2018-07-03T02:29:54.178Z,0.60
2018-07-03T02:32:23.374Z,0.60
2018-07-03T02:34:52.247Z,0.77
2018-07-03T02:37:21.203Z,0.87
2018-07-03T02:39:50.161Z,0.60
2018-07-03T02:42:19.201Z,1.05
2018-07-03T02:44:48.114Z,0.70
2018-07-03T02:47:17.133Z,0.63
2018-07-03T02:49:46.101Z,0.80
2018-07-03T02:52:15.329Z,0.90
2018-07-03T02:54:44.388Z,0.97
2018-07-03T02:57:13.381Z,0.80
2018-07-03T02:59:42.488Z,0.80
2018-07-03T03:02:11.392Z,0.90
2018-07-03T03:04:40.443Z,0.90
2018-07-03T03:07:09.415Z,0.70
2018-07-03T03:09:38.583Z,0.70
2018-07-03T03:12:07.358Z,0.77
2018-07-03T03:14:36.424Z,0.70
2018-07-03T03:17:08.469Z,0.80
2018-07-03T03:19:37.564Z,0.85
2018-07-03T03:22:06.443Z,0.70
2018-07-03T03:24:35.550Z,0.83
2018-07-03T03:27:06.855Z,0.80
2018-07-03T03:29:35.777Z,0.60
2018-07-03T03:32:04.715Z,1.10
2018-07-03T03:34:34.959Z,0.83
2018-07-03T03:37:04.229Z,0.90
2018-07-03T03:39:32.890Z,0.70
2018-07-03T03:42:01.613Z,0.70
2018-07-03T03:44:30.277Z,0.80
2018-07-03T03:46:58.974Z,0.80
2018-07-03T03:49:27.631Z,0.77
2018-07-03T03:51:56.309Z,1.20
2018-07-03T03:54:25.061Z,1.20
2018-07-03T03:56:53.701Z,1.05
2018-07-03T03:59:22.393Z,1.40
2018-07-03T04:01:51.087Z,1.40
2018-07-03T04:04:19.761Z,1.50
2018-07-03T04:06:48.462Z,0.90
2018-07-03T04:09:17.239Z,1.23
2018-07-03T04:11:45.949Z,1.27
2018-07-03T04:14:14.601Z,1.50
2018-07-03T04:16:43.292Z,1.60
2018-07-03T04:19:11.980Z,1.37
2018-07-03T04:21:40.659Z,1.40
2018-07-03T04:24:09.447Z,1.07
2018-07-03T04:26:38.239Z,1.00
2018-07-03T04:29:06.893Z,1.73
2018-07-03T04:31:35.560Z,1.40
2018-07-03T04:34:04.256Z,1.30
2018-07-03T04:36:33.294Z,1.53
2018-07-03T04:39:02.469Z,1.13
2018-07-03T04:41:31.396Z,1.10
2018-07-03T04:44:00.754Z,2.10
2018-07-03T04:46:29.722Z,4.83
2018-07-03T04:48:58.411Z,4.93
2018-07-03T04:51:27.286Z,2.57
2018-07-03T04:53:56.627Z,13.07
2018-07-03T04:56:25.928Z,7.07
2018-07-03T04:58:55.683Z,2.33
2018-07-03T05:01:24.886Z,2.43
2018-07-03T05:03:54.337Z,3.47
2018-07-03T05:06:23.575Z,1.87
2018-07-03T05:08:52.906Z,1.50
2018-07-03T05:11:22.411Z,1.87
2018-07-03T05:13:51.432Z,1.47
2018-07-03T05:16:20.632Z,1.53
2018-07-03T05:18:49.655Z,1.20
2018-07-03T05:21:18.494Z,1.43
2018-07-03T05:23:47.634Z,1.30
2018-07-03T05:26:17.409Z,1.97
2018-07-03T05:28:46.773Z,1.20
2018-07-03T05:31:15.999Z,1.10
2018-07-03T05:33:44.989Z,1.17
2018-07-03T05:36:14.319Z,1.60
2018-07-03T05:38:43.348Z,1.10
2018-07-03T05:41:12.593Z,1.15
2018-07-03T05:43:41.235Z,2.15
2018-07-03T05:46:10.552Z,1.30
2018-07-03T05:48:39.638Z,1.90
2018-07-03T05:51:08.861Z,1.37
2018-07-03T05:53:38.762Z,1.50
2018-07-03T05:56:07.904Z,1.70
2018-07-03T05:58:38.123Z,1.75
2018-07-03T06:01:07.021Z,2.10
2018-07-03T06:03:36.084Z,1.67
2018-07-03T06:06:04.803Z,2.10
2018-07-03T06:08:34.095Z,2.40
2018-07-03T06:11:03.017Z,1.83
2018-07-03T06:13:32.379Z,1.70
2018-07-03T06:16:01.460Z,1.90
2018-07-03T06:18:30.926Z,1.48
2018-07-03T06:21:02.818Z,1.08
2018-07-03T06:23:31.576Z,0.80
2018-07-03T06:26:01.012Z,1.23
2018-07-03T06:28:29.514Z,1.20
2018-07-03T06:30:58.594Z,1.50
2018-07-03T06:33:27.918Z,1.10
2018-07-03T06:35:56.857Z,0.95
2018-07-03T06:38:25.820Z,0.95
2018-07-03T06:40:54.597Z,1.37
2018-07-03T06:43:23.317Z,1.40
2018-07-03T06:45:52.625Z,1.37
2018-07-03T06:48:21.978Z,1.60
2018-07-03T06:50:51.230Z,1.30
2018-07-03T06:53:21.089Z,1.20
2018-07-03T06:55:50.433Z,1.30
2018-07-03T06:58:18.997Z,1.90
2018-07-03T07:00:47.667Z,1.67
2018-07-03T07:03:16.395Z,2.62
2018-07-03T07:05:45.051Z,1.60
2018-07-03T07:08:13.769Z,1.37
2018-07-03T07:10:42.599Z,1.30
2018-07-03T07:13:11.271Z,0.88
2018-07-03T07:15:39.979Z,1.27
2018-07-03T07:18:09.235Z,1.10
2018-07-03T07:20:38.755Z,1.10
2018-07-03T07:23:07.524Z,0.70
2018-07-03T07:25:39.213Z,0.88
2018-07-03T07:28:08.930Z,0.70
2018-07-03T07:30:38.259Z,0.80
2018-07-03T07:33:10.551Z,0.85
2018-07-03T07:35:41.536Z,0.57
2018-07-03T07:38:12.306Z,0.68
2018-07-03T07:40:41.573Z,0.60
2018-07-03T07:43:10.446Z,0.90
2018-07-03T07:45:39.156Z,1.20
2018-07-03T07:48:09.187Z,0.70
2018-07-03T07:50:38.153Z,0.80
2018-07-03T07:53:06.964Z,0.65
2018-07-03T07:55:35.747Z,1.35
2018-07-03T07:58:04.875Z,1.05
2018-07-03T08:00:34.571Z,0.55
2018-07-03T08:03:03.492Z,2.60
2018-07-03T08:05:32.190Z,1.33
2018-07-03T08:08:00.911Z,0.50
2018-07-03T08:10:29.611Z,0.90
2018-07-03T08:12:58.346Z,0.68
2018-07-03T08:15:27.022Z,0.93
2018-07-03T08:17:55.809Z,0.50
2018-07-03T08:20:24.558Z,0.70
2018-07-03T08:22:53.257Z,0.85
2018-07-03T08:25:22.027Z,0.57
2018-07-03T08:27:50.772Z,1.80
2018-07-03T08:30:19.526Z,1.20
2018-07-03T08:32:48.241Z,0.68
2018-07-03T08:35:16.957Z,0.60
2018-07-03T08:37:46.702Z,0.40
2018-07-03T08:40:15.488Z,0.50
2018-07-03T08:42:44.287Z,0.60
2018-07-03T08:45:12.910Z,0.50
2018-07-03T08:47:42.621Z,0.80
2018-07-03T08:50:11.553Z,0.60
2018-07-03T08:52:41.517Z,1.10
2018-07-03T08:55:14.997Z,0.60
2018-07-03T08:57:44.773Z,0.50
2018-07-03T09:00:14.122Z,0.52
2018-07-03T09:02:43.879Z,0.90
2018-07-03T09:05:12.604Z,0.60
2018-07-03T09:07:41.434Z,0.60
2018-07-03T09:10:10.715Z,0.50
2018-07-03T09:12:39.539Z,0.52
2018-07-03T09:15:08.227Z,0.52
2018-07-03T09:17:36.987Z,0.75
2018-07-03T09:20:05.761Z,0.40
2018-07-03T09:22:34.431Z,0.52
2018-07-03T09:25:03.122Z,0.50
2018-07-03T09:27:31.778Z,0.90
2018-07-03T09:30:01.459Z,0.50
2018-07-03T09:32:30.136Z,0.70
2018-07-03T09:34:58.902Z,0.50
2018-07-03T09:37:30.409Z,0.70
2018-07-03T09:42:46.724Z,0.50
2018-07-03T09:45:15.485Z,0.40
2018-07-03T09:47:44.158Z,0.40
2018-07-03T09:50:12.849Z,0.43
2018-07-03T09:52:49.220Z,0.60
2018-07-03T09:55:17.920Z,0.57
2018-07-03T09:57:46.594Z,0.55
2018-07-03T10:00:15.424Z,0.70
2018-07-03T10:02:44.169Z,0.57
2018-07-03T10:05:12.906Z,0.60
2018-07-03T10:07:41.609Z,0.50
2018-07-03T10:10:10.481Z,0.50
2018-07-03T10:12:39.281Z,0.50
2018-07-03T10:15:08.072Z,0.60
2018-07-03T10:17:36.694Z,0.52
2018-07-03T10:20:05.398Z,0.50
2018-07-03T10:22:34.328Z,0.63
2018-07-03T10:25:03.067Z,0.80
2018-07-03T10:27:32.070Z,0.90
2018-07-03T10:30:03.100Z,0.60
2018-07-03T10:32:31.766Z,0.50
2018-07-03T10:35:00.498Z,0.55
2018-07-03T10:37:29.271Z,0.40
2018-07-03T10:39:58.008Z,0.60
2018-07-03T10:42:26.780Z,0.65
2018-07-03T10:44:55.471Z,0.50
2018-07-03T10:47:24.794Z,0.77
2018-07-03T10:49:53.481Z,0.77
2018-07-03T10:52:22.128Z,0.60
2018-07-03T10:54:50.814Z,0.50
2018-07-03T10:57:19.515Z,0.43
2018-07-03T10:59:48.205Z,0.70
2018-07-03T11:02:16.887Z,0.80
2018-07-03T11:04:45.572Z,0.63
2018-07-03T11:07:14.274Z,0.55
2018-07-03T11:09:42.889Z,0.50
2018-07-03T11:12:11.600Z,0.45
2018-07-03T11:14:40.300Z,0.80
2018-07-03T11:17:08.986Z,0.73
2018-07-03T11:19:37.758Z,0.68
2018-07-03T11:22:06.453Z,0.60
2018-07-03T11:24:35.420Z,0.55
2018-07-03T11:27:04.052Z,0.40
2018-07-03T11:29:32.746Z,0.60
2018-07-03T11:32:01.417Z,0.60
2018-07-03T11:34:30.186Z,0.60
2018-07-03T11:36:58.829Z,0.70
2018-07-03T11:39:27.506Z,0.65
2018-07-03T11:41:56.146Z,0.70
2018-07-03T11:44:24.852Z,0.60
2018-07-03T11:46:53.498Z,0.80
2018-07-03T11:49:24.728Z,0.70
2018-07-03T11:51:54.054Z,0.77
2018-07-03T11:54:23.184Z,0.62
2018-07-03T11:56:51.737Z,0.73
2018-07-03T11:59:20.441Z,0.60
2018-07-03T12:01:49.069Z,0.55
2018-07-03T12:04:17.742Z,0.60
2018-07-03T12:06:46.390Z,0.70
2018-07-03T12:09:15.149Z,0.43
2018-07-03T12:11:43.773Z,0.50
2018-07-03T12:14:12.461Z,0.50
2018-07-03T12:16:41.140Z,0.60
2018-07-03T12:46:12.443Z,0.68
2018-07-03T12:48:41.097Z,0.63
2018-07-03T12:51:10.434Z,0.60
2018-07-03T12:53:39.100Z,0.65
2018-07-03T12:56:08.062Z,0.50
2018-07-03T12:58:38.200Z,0.77
2018-07-03T13:01:07.337Z,0.68
2018-07-03T13:03:36.255Z,0.60
2018-07-03T13:06:09.878Z,0.60
2018-07-03T13:08:39.058Z,0.60
2018-07-03T13:11:08.200Z,0.62
2018-07-03T13:13:37.404Z,0.65
2018-07-03T13:16:05.990Z,0.55
2018-07-03T13:21:24.953Z,0.55
2018-07-03T13:23:59.033Z,0.75
2018-07-03T13:26:34.169Z,0.57
2018-07-03T13:29:08.315Z,0.50
2018-07-03T13:31:37.696Z,0.40
2018-07-03T13:34:10.324Z,0.60
2018-07-03T13:36:45.421Z,0.60
2018-07-03T13:39:15.506Z,0.60
2018-07-03T13:41:45.327Z,0.60
2018-07-03T13:53:09.043Z,0.85
2018-07-03T13:55:38.339Z,0.40
2018-07-03T13:58:07.398Z,0.70
2018-07-03T14:00:37.471Z,0.62
2018-07-03T14:03:08.648Z,0.80
2018-07-03T14:05:37.965Z,0.50
2018-07-03T14:08:10.717Z,0.90
2018-07-03T14:10:42.652Z,0.80
2018-07-03T14:13:11.820Z,0.50
2018-07-03T14:15:42.752Z,0.80
2018-07-03T14:18:12.902Z,0.52
2018-07-03T14:20:43.589Z,0.62
2018-07-03T14:23:12.909Z,1.10
2018-07-03T14:25:41.938Z,0.68
2018-07-03T14:28:10.863Z,1.05
2018-07-03T14:30:40.280Z,1.00
2018-07-03T14:33:09.413Z,0.95
2018-07-03T14:35:38.135Z,0.90
2018-07-03T14:38:07.278Z,0.90
2018-07-03T14:40:35.988Z,0.77
2018-07-03T14:43:05.141Z,0.80
2018-07-03T14:45:34.563Z,0.95
2018-07-03T14:48:03.271Z,0.75
2018-07-03T14:50:32.437Z,1.27
2018-07-03T14:53:05.447Z,1.15
2018-07-03T14:55:34.144Z,0.73
2018-07-03T14:58:04.761Z,0.70
2018-07-03T15:00:37.032Z,0.60
2018-07-03T15:03:04.147Z,0.60
2018-07-03T15:05:33.045Z,0.70
2018-07-03T15:08:02.353Z,0.90
2018-07-03T15:10:34.825Z,0.95
2018-07-03T15:13:04.268Z,0.60
2018-07-03T15:15:34.919Z,0.77
2018-07-03T15:18:05.918Z,0.62
2018-07-03T15:20:41.698Z,0.70
2018-07-03T15:23:13.702Z,0.52
2018-07-03T15:25:44.936Z,0.85
2018-07-03T15:28:15.737Z,0.50
2018-07-03T15:30:45.621Z,0.67
2018-07-03T15:33:16.417Z,0.60
2018-07-03T15:35:54.422Z,0.73
2018-07-03T15:38:23.784Z,0.80
2018-07-03T15:40:55.081Z,0.90
2018-07-03T15:43:24.441Z,1.00
2018-07-03T15:45:59.527Z,0.90
2018-07-03T15:48:29.883Z,0.80
2018-07-03T15:51:04.489Z,0.85
2018-07-03T15:53:33.797Z,1.02
2018-07-03T15:56:03.143Z,1.20
2018-07-03T15:58:34.825Z,1.70
2018-07-03T16:01:10.361Z,1.75
2018-07-03T16:03:48.335Z,1.85
2018-07-03T16:09:34.290Z,2.40
2018-07-03T16:12:09.567Z,2.33
2018-07-03T16:14:46.730Z,2.72
2018-07-03T16:17:22.020Z,2.50
2018-07-03T16:19:54.908Z,2.70
2018-07-03T16:22:26.700Z,2.45
2018-07-03T16:24:59.892Z,1.50
2018-07-03T16:27:41.056Z,1.50
2018-07-03T16:30:17.846Z,1.80
2018-07-03T16:35:40.034Z,1.05
2018-07-03T16:38:09.864Z,1.20
2018-07-03T16:40:43.478Z,1.35
2018-07-03T16:43:13.650Z,1.30
2018-07-03T16:45:45.347Z,1.20
2018-07-03T16:48:20.641Z,0.93
2018-07-03T16:50:54.445Z,0.80
2018-07-03T16:53:35.207Z,0.80
2018-07-03T16:56:05.710Z,0.90
2018-07-03T16:58:37.168Z,0.80
2018-07-03T17:01:11.949Z,0.80
2018-07-03T17:03:42.671Z,0.80
2018-07-03T17:06:16.437Z,0.85
2018-07-03T17:08:59.919Z,0.70
2018-07-03T17:11:36.195Z,0.70
2018-07-03T17:14:09.484Z,0.60
2018-07-03T17:22:32.135Z,0.80
2018-07-03T17:25:02.261Z,0.70
2018-07-03T17:27:35.310Z,0.60
2018-07-03T17:30:06.365Z,0.70
2018-07-03T17:32:38.079Z,0.60
2018-07-03T17:35:08.423Z,0.50
2018-07-03T17:37:40.061Z,0.80
2018-07-03T17:40:39.296Z,0.65
2018-07-03T17:43:10.676Z,0.70
2018-07-03T17:45:53.941Z,0.80
2018-07-03T17:48:25.996Z,0.60
2018-07-03T17:50:56.204Z,0.75
2018-07-03T17:53:26.966Z,0.90
2018-07-03T17:56:07.106Z,0.77
2018-07-03T17:58:41.513Z,0.85
2018-07-03T18:01:24.672Z,0.50
2018-07-03T18:03:59.558Z,0.80
2018-07-03T18:06:29.127Z,0.70
2018-07-03T18:09:06.024Z,0.73
2018-07-03T18:11:39.438Z,0.50
2018-07-03T18:14:10.369Z,0.75
2018-07-03T18:16:46.623Z,0.70
2018-07-03T18:19:17.543Z,1.55
2018-07-03T18:24:40.545Z,0.68
2018-07-03T18:30:11.119Z,0.60
2018-07-03T18:32:43.464Z,0.55
2018-07-03T18:35:14.262Z,0.37
2018-07-03T18:38:04.387Z,0.80
2018-07-03T18:40:40.588Z,0.73
2018-07-03T18:43:16.975Z,0.55
2018-07-03T18:46:00.880Z,0.73
2018-07-03T18:48:34.498Z,0.68
2018-07-03T18:51:03.583Z,0.82
2018-07-03T18:53:35.879Z,0.90
2018-07-03T18:56:06.003Z,1.23
2018-07-03T18:58:36.327Z,1.00
2018-07-03T19:01:07.804Z,2.47
2018-07-03T19:06:40.762Z,1.35
2018-07-03T19:12:03.356Z,1.00
2018-07-03T19:14:32.487Z,0.60
2018-07-03T19:17:03.200Z,1.35
2018-07-03T19:19:37.584Z,0.95
2018-07-03T19:22:06.675Z,0.95
2018-07-03T19:24:35.423Z,0.85
2018-07-03T19:27:04.077Z,0.80
2018-07-03T19:29:32.785Z,0.93
2018-07-03T19:32:03.978Z,0.93
2018-07-03T19:34:32.666Z,0.60
2018-07-03T19:37:01.812Z,0.62
2018-07-03T19:39:36.296Z,0.70
2018-07-03T19:42:05.150Z,0.40
2018-07-03T19:44:34.619Z,0.77
2018-07-03T19:47:03.930Z,1.12
2018-07-03T19:49:33.208Z,0.60
2018-07-03T19:52:05.735Z,0.73
2018-07-03T19:54:38.220Z,0.60
2018-07-03T19:57:08.636Z,0.70
2018-07-03T19:59:37.860Z,0.68
2018-07-03T20:02:07.026Z,0.90
2018-07-03T20:04:36.972Z,0.93
2018-07-03T20:07:09.402Z,0.70
2018-07-03T20:09:38.271Z,0.85
2018-07-03T20:12:08.003Z,0.82
2018-07-03T20:14:37.123Z,0.85
2018-07-03T20:17:06.112Z,0.82
2018-07-03T20:19:35.378Z,0.90
2018-07-03T20:22:05.734Z,1.80
2018-07-03T20:24:35.809Z,1.05
2018-07-03T20:27:04.454Z,0.90
2018-07-03T20:29:33.644Z,1.10
2018-07-03T20:32:02.297Z,1.27
2018-07-03T20:34:33.500Z,1.15
2018-07-03T20:37:02.347Z,1.75
2018-07-03T20:39:33.347Z,2.05
2018-07-03T20:42:02.348Z,2.22
2018-07-03T20:44:31.767Z,2.35
2018-07-03T20:47:01.094Z,2.33
2018-07-03T20:49:30.584Z,2.30
2018-07-03T20:52:02.173Z,2.47
2018-07-03T20:54:31.334Z,1.73
2018-07-03T20:57:04.041Z,1.62
2018-07-03T20:59:36.003Z,1.75
2018-07-03T21:02:07.418Z,2.22
2018-07-03T21:04:41.363Z,1.40
2018-07-03T21:07:20.831Z,1.40
2018-07-03T21:09:52.566Z,1.73
2018-07-03T21:12:21.691Z,1.52
2018-07-03T21:14:52.571Z,1.87
2018-07-03T21:20:19.698Z,1.00
2018-07-03T21:22:51.365Z,1.20
2018-07-03T21:25:24.001Z,1.20
2018-07-03T21:27:53.351Z,1.12
2018-07-03T21:30:24.904Z,1.25
2018-07-03T21:32:57.400Z,1.00
2018-07-03T21:35:30.850Z,0.90
2018-07-03T21:38:00.405Z,1.50
2018-07-03T21:40:29.743Z,1.05
2018-07-03T21:42:58.408Z,0.82
2018-07-03T21:45:27.264Z,1.40
2018-07-03T21:47:57.439Z,1.20
2018-07-03T21:50:29.074Z,1.10
2018-07-03T21:53:00.780Z,1.40
2018-07-03T21:55:29.743Z,1.30
2018-07-03T21:57:59.023Z,1.25
2018-07-03T22:00:28.235Z,1.35
2018-07-03T22:02:57.724Z,1.45
2018-07-03T22:05:26.466Z,1.50
2018-07-03T22:07:55.279Z,1.20
2018-07-03T22:10:24.942Z,1.67
2018-07-03T22:12:57.144Z,1.37
2018-07-03T22:15:26.023Z,1.42
2018-07-03T22:17:55.415Z,1.37
2018-07-03T22:20:24.372Z,1.40
2018-07-03T22:22:53.805Z,1.30
2018-07-03T22:25:23.395Z,1.70
2018-07-03T22:27:52.033Z,1.30
2018-07-03T22:30:20.709Z,1.10
2018-07-03T22:32:49.354Z,1.08
2018-07-03T22:35:18.142Z,1.30
2018-07-03T22:37:46.933Z,1.20
2018-07-03T22:40:15.618Z,1.70
2018-07-03T22:42:44.505Z,0.85
2018-07-03T22:45:14.016Z,1.42
2018-07-03T22:47:43.246Z,1.23
2018-07-03T22:50:12.346Z,1.40
2018-07-03T22:52:40.838Z,1.42
2018-07-03T22:55:09.508Z,1.10
2018-07-03T22:57:38.143Z,1.10
2018-07-03T23:00:06.841Z,1.37
2018-07-03T23:02:35.189Z,1.58
2018-07-03T23:05:03.855Z,1.35
2018-07-03T23:07:32.479Z,1.85
2018-07-03T23:10:01.164Z,1.50
2018-07-03T23:12:29.804Z,1.25
2018-07-03T23:14:58.481Z,1.30
2018-07-03T23:17:27.162Z,1.40
2018-07-03T23:19:55.848Z,1.33
2018-07-03T23:22:33.704Z,1.58
2018-07-03T23:25:02.359Z,1.17
2018-07-03T23:27:31.805Z,1.27
2018-07-03T23:30:00.643Z,1.40
2018-07-03T23:32:29.750Z,1.27
2018-07-03T23:34:58.704Z,1.50
2018-07-03T23:37:28.022Z,1.42
2018-07-03T23:39:57.094Z,1.45
2018-07-03T23:42:26.064Z,1.20
2018-07-03T23:44:54.903Z,1.10
2018-07-03T23:48:02.893Z,1.60
2018-07-03T23:51:26.873Z,1.25
2018-07-03T23:54:51.179Z,1.57
2018-07-03T23:58:14.899Z,1.50
